Time;durP1;ratioP1;P1;durP2;ratioP2;P2;SDS_P1;SDS_P2;PMS_P1;PMS_P2;Temp;Humidity;BMP_temperature;BMP_pressure;BME280_temperature;BME280_humidity;BME280_pressure;Samples;Min_cycle;Max_cycle;Signal;HPM_P1;HPM_P2
2023/10/21 00:02:09;;;;;;;1.87;1.20;;;15.10;99.90;;;;;;4972235;28;20045;-17
2023/10/21 00:04:35;;;;;;;2.30;1.40;;;15.10;99.90;;;;;;4992512;28;20654;-17
2023/10/21 00:07:01;;;;;;;4.60;1.38;;;15.10;99.90;;;;;;4955223;28;20092;-17
2023/10/21 00:09:27;;;;;;;1.60;1.00;;;15.10;99.90;;;;;;4965084;28;20046;-17
2023/10/21 00:11:53;;;;;;;1.05;0.95;;;15.10;99.90;;;;;;4993202;28;20018;-18
2023/10/21 00:14:18;;;;;;;2.10;1.20;;;15.10;99.90;;;;;;4983997;28;20040;-17
2023/10/21 00:16:44;;;;;;;2.47;1.20;;;15.20;99.90;;;;;;4965672;28;23124;-17
2023/10/21 00:19:12;;;;;;;2.10;1.20;;;15.20;99.90;;;;;;4993932;28;20037;-18
2023/10/21 00:21:39;;;;;;;2.20;1.60;;;15.20;99.90;;;;;;4964717;28;20190;-17
2023/10/21 00:24:05;;;;;;;1.60;1.10;;;15.20;99.90;;;;;;4993875;28;20026;-16
2023/10/21 00:26:30;;;;;;;2.72;1.10;;;15.20;99.90;;;;;;4980470;28;20042;-16
2023/10/21 00:28:56;;;;;;;5.27;1.63;;;15.20;99.90;;;;;;4991630;28;20027;-16
2023/10/21 00:31:22;;;;;;;2.03;1.08;;;15.20;99.90;;;;;;4979027;28;20030;-16
2023/10/21 00:33:47;;;;;;;3.23;1.30;;;15.20;99.90;;;;;;4974135;28;20038;-16
2023/10/21 00:36:13;;;;;;;1.37;1.00;;;15.20;99.90;;;;;;4977872;28;20036;-16
2023/10/21 00:38:39;;;;;;;2.33;1.00;;;15.20;99.90;;;;;;4947046;28;20523;-16
2023/10/21 00:41:05;;;;;;;2.57;1.20;;;15.30;99.90;;;;;;4980808;28;20295;-16
2023/10/21 00:43:40;;;;;;;3.60;1.00;;;15.30;99.90;;;;;;4978323;28;20882;-16
2023/10/21 00:46:10;;;;;;;1.58;1.15;;;15.30;99.90;;;;;;4979710;28;20133;-15
2023/10/21 00:48:37;;;;;;;1.30;0.93;;;15.30;99.90;;;;;;4982626;28;20352;-16
2023/10/21 00:51:03;;;;;;;1.83;1.20;;;15.30;99.90;;;;;;4989699;28;20400;-15
2023/10/21 00:53:31;;;;;;;1.90;1.10;;;15.30;99.90;;;;;;4966022;28;20109;-16
2023/10/21 00:55:58;;;;;;;2.00;1.15;;;15.30;99.90;;;;;;4976041;28;20251;-15
2023/10/21 00:58:27;;;;;;;2.15;1.05;;;15.30;99.90;;;;;;4998498;28;20416;-15
2023/10/21 01:00:54;;;;;;;2.15;1.00;;;15.30;99.90;;;;;;4973266;28;20434;-15
2023/10/21 01:03:22;;;;;;;1.10;0.90;;;15.30;99.90;;;;;;4980998;28;20041;-16
2023/10/21 01:05:48;;;;;;;2.75;1.00;;;15.30;99.90;;;;;;4977038;28;20029;-15
2023/10/21 01:08:14;;;;;;;2.80;1.65;;;15.30;99.90;;;;;;4966398;28;20026;-15
2023/10/21 01:10:40;;;;;;;1.53;0.97;;;15.30;99.90;;;;;;4998240;28;20618;-16
2023/10/21 01:13:06;;;;;;;2.47;0.90;;;15.30;99.90;;;;;;4993336;28;20289;-16
2023/10/21 01:15:32;;;;;;;2.45;1.17;;;15.30;99.90;;;;;;4992876;28;20021;-16
2023/10/21 01:17:58;;;;;;;1.87;1.00;;;15.20;99.90;;;;;;4978704;28;20083;-15
2023/10/21 01:20:23;;;;;;;1.65;0.90;;;15.30;99.90;;;;;;4978553;28;20042;-15
2023/10/21 01:22:49;;;;;;;1.77;0.90;;;15.20;99.90;;;;;;4988875;28;20334;-15
2023/10/21 01:25:15;;;;;;;1.53;1.10;;;15.20;99.90;;;;;;4970076;28;20296;-15
2023/10/21 01:27:41;;;;;;;1.13;0.90;;;15.20;99.90;;;;;;4980564;28;20495;-16
2023/10/21 01:30:07;;;;;;;2.37;1.00;;;15.20;99.90;;;;;;5008500;28;20053;-15
2023/10/21 01:32:35;;;;;;;2.88;1.17;;;15.10;99.90;;;;;;5008997;28;20037;-16
2023/10/21 01:35:01;;;;;;;1.73;1.00;;;15.10;99.90;;;;;;4973882;28;20236;-17
2023/10/21 01:37:27;;;;;;;2.00;1.07;;;15.10;99.90;;;;;;4994809;28;20045;-18
2023/10/21 01:39:52;;;;;;;1.10;0.90;;;15.10;99.90;;;;;;4967925;28;20601;-17
2023/10/21 01:42:18;;;;;;;1.30;0.97;;;15.10;99.90;;;;;;4972647;28;20053;-17
2023/10/21 01:44:44;;;;;;;1.45;0.85;;;15.10;99.90;;;;;;4991724;28;20496;-17
2023/10/21 01:47:10;;;;;;;1.90;1.00;;;15.10;99.90;;;;;;4997616;28;20132;-18
2023/10/21 01:49:36;;;;;;;2.07;1.10;;;15.10;99.90;;;;;;4976890;28;20065;-17
2023/10/21 01:52:01;;;;;;;1.60;1.10;;;15.10;99.90;;;;;;4984609;28;20208;-18
2023/10/21 01:54:27;;;;;;;2.07;0.97;;;15.10;99.90;;;;;;4994500;28;20038;-18
2023/10/21 01:56:53;;;;;;;1.83;1.05;;;15.10;99.90;;;;;;4955740;28;20406;-18
2023/10/21 01:59:19;;;;;;;1.20;0.98;;;15.10;99.90;;;;;;4987794;28;20496;-18
2023/10/21 02:01:44;;;;;;;1.20;0.90;;;15.10;99.90;;;;;;4977508;28;20434;-18
2023/10/21 02:04:11;;;;;;;2.67;1.10;;;15.10;99.90;;;;;;4981260;28;20331;-18
2023/10/21 02:06:37;;;;;;;1.42;1.08;;;15.10;99.90;;;;;;4972762;28;20688;-18
2023/10/21 02:09:02;;;;;;;2.03;1.10;;;15.10;99.90;;;;;;4990558;28;20838;-18
2023/10/21 02:11:28;;;;;;;1.60;1.00;;;15.10;99.90;;;;;;4968261;28;20061;-18
2023/10/21 02:13:53;;;;;;;1.70;1.05;;;15.20;99.90;;;;;;4978072;28;20243;-18
2023/10/21 02:16:20;;;;;;;2.87;1.10;;;15.20;99.90;;;;;;4993928;28;20014;-18
2023/10/21 02:18:46;;;;;;;1.48;1.00;;;15.20;99.90;;;;;;4993339;28;20026;-18
2023/10/21 02:21:11;;;;;;;1.60;1.10;;;15.20;99.90;;;;;;4976254;28;20547;-18
2023/10/21 02:23:37;;;;;;;3.17;1.17;;;15.20;99.90;;;;;;4990353;28;20330;-18
2023/10/21 02:26:04;;;;;;;2.63;1.10;;;15.20;99.90;;;;;;4998025;28;20058;-18
2023/10/21 02:28:31;;;;;;;1.90;1.20;;;15.20;99.90;;;;;;4968912;28;20037;-18
2023/10/21 02:30:57;;;;;;;1.35;1.05;;;15.30;99.90;;;;;;4995961;28;20026;-18
2023/10/21 02:33:23;;;;;;;2.47;1.02;;;15.30;99.90;;;;;;4996003;28;20062;-18
2023/10/21 02:35:53;;;;;;;1.60;1.30;;;15.30;99.90;;;;;;4988885;28;20871;-17
2023/10/21 02:38:19;;;;;;;1.20;0.80;;;15.30;99.90;;;;;;4994923;28;20050;-18
2023/10/21 02:40:46;;;;;;;1.07;0.80;;;15.30;99.90;;;;;;4988616;28;20447;-18
2023/10/21 02:43:12;;;;;;;1.30;1.00;;;15.30;99.90;;;;;;4972470;28;20042;-18
2023/10/21 02:45:38;;;;;;;3.13;1.30;;;15.30;99.90;;;;;;4986083;28;20037;-16
2023/10/21 02:48:04;;;;;;;1.63;1.08;;;15.30;99.90;;;;;;4995337;28;20624;-15
2023/10/21 02:50:29;;;;;;;1.50;1.00;;;15.30;99.90;;;;;;4983474;28;20022;-15
2023/10/21 02:52:55;;;;;;;1.63;1.20;;;15.20;99.90;;;;;;4979545;28;20096;-15
2023/10/21 02:55:21;;;;;;;1.13;0.90;;;15.20;99.90;;;;;;4996666;28;20057;-15
2023/10/21 02:57:46;;;;;;;2.13;0.82;;;15.80;99.90;;;;;;4969094;28;20060;-16
2023/10/21 03:00:15;;;;;;;1.17;0.87;;;15.20;99.90;;;;;;4965622;28;20356;-15
2023/10/21 03:02:44;;;;;;;1.20;0.97;;;15.20;99.90;;;;;;4992753;28;20280;-16
2023/10/21 03:05:11;;;;;;;1.45;0.93;;;15.20;99.90;;;;;;4993250;28;20455;-18
2023/10/21 03:07:37;;;;;;;1.10;1.00;;;15.20;99.90;;;;;;4976802;28;20052;-17
2023/10/21 03:10:03;;;;;;;1.37;1.10;;;15.20;99.90;;;;;;4992332;28;20112;-18
2023/10/21 03:12:29;;;;;;;1.90;1.15;;;15.20;99.90;;;;;;4992293;28;20052;-18
2023/10/21 03:14:58;;;;;;;1.90;1.00;;;15.20;99.90;;;;;;4971343;28;20116;-18
2023/10/21 03:17:24;;;;;;;1.55;1.10;;;15.20;99.90;;;;;;4983950;28;20037;-18
2023/10/21 03:19:50;;;;;;;1.50;1.20;;;15.20;99.90;;;;;;4991434;28;20259;-18
2023/10/21 03:22:16;;;;;;;2.07;1.00;;;15.20;99.90;;;;;;4984673;28;20032;-18
2023/10/21 03:24:41;;;;;;;2.78;1.30;;;15.20;99.90;;;;;;4981528;28;20051;-18
2023/10/21 03:27:07;;;;;;;2.67;1.67;;;15.20;99.90;;;;;;5009960;28;20025;-18
2023/10/21 03:29:33;;;;;;;2.40;1.55;;;15.20;99.90;;;;;;4967662;28;20049;-18
2023/10/21 03:31:59;;;;;;;2.75;1.25;;;15.20;99.90;;;;;;4984672;28;20034;-18
2023/10/21 03:34:24;;;;;;;1.67;1.10;;;15.30;99.90;;;;;;4991160;28;20969;-18
2023/10/21 03:36:50;;;;;;;1.52;1.10;;;15.40;99.90;;;;;;4981273;28;20596;-18
2023/10/21 03:39:16;;;;;;;3.03;1.30;;;15.30;99.90;;;;;;4976833;28;20026;-18
2023/10/21 03:41:41;;;;;;;1.57;1.30;;;15.30;99.90;;;;;;4992894;28;20634;-18
2023/10/21 03:44:07;;;;;;;3.65;1.63;;;15.30;99.90;;;;;;4992814;28;20126;-18
2023/10/21 03:46:33;;;;;;;2.03;1.10;;;15.30;99.90;;;;;;4958886;28;20061;-18
2023/10/21 03:48:58;;;;;;;2.08;1.10;;;15.30;99.90;;;;;;4990090;28;20030;-18
2023/10/21 03:51:24;;;;;;;1.97;1.20;;;15.30;99.90;;;;;;4987736;28;20026;-18
2023/10/21 03:53:50;;;;;;;2.08;1.05;;;15.30;99.90;;;;;;4981968;28;20045;-18
2023/10/21 03:56:16;;;;;;;2.45;1.10;;;15.30;99.90;;;;;;4987692;28;20034;-18
2023/10/21 03:58:42;;;;;;;2.60;1.07;;;15.30;99.90;;;;;;4990272;28;20037;-18
2023/10/21 04:01:08;;;;;;;2.53;1.17;;;15.40;99.90;;;;;;4968933;28;20494;-18
2023/10/21 04:03:35;;;;;;;1.80;1.30;;;15.40;99.90;;;;;;4985156;28;20155;-17
2023/10/21 04:06:00;;;;;;;1.60;1.13;;;15.40;99.90;;;;;;4983430;28;20064;-18
2023/10/21 04:08:28;;;;;;;2.08;1.02;;;15.40;99.90;;;;;;4981144;28;20030;-18
2023/10/21 04:10:54;;;;;;;1.92;1.13;;;15.50;99.90;;;;;;4988649;28;20507;-18
2023/10/21 04:13:20;;;;;;;1.83;1.10;;;15.50;99.90;;;;;;4990995;28;20427;-18
2023/10/21 04:15:46;;;;;;;2.33;1.20;;;15.20;99.90;;;;;;4970656;28;20038;-15
2023/10/21 04:18:13;;;;;;;2.95;1.40;;;15.50;99.90;;;;;;4984030;28;20511;-15
2023/10/21 04:20:39;;;;;;;1.42;1.15;;;15.50;99.90;;;;;;4976447;28;20761;-15
2023/10/21 04:23:05;;;;;;;1.33;1.05;;;15.60;99.90;;;;;;4995767;28;20566;-15
2023/10/21 04:25:32;;;;;;;3.23;1.17;;;15.60;99.90;;;;;;4979149;28;20224;-16
2023/10/21 04:27:57;;;;;;;4.20;1.20;;;15.60;99.90;;;;;;4987853;28;20030;-15
2023/10/21 04:30:24;;;;;;;1.33;1.15;;;17.30;99.90;;;;;;4985555;28;20123;-16
2023/10/21 04:32:51;;;;;;;1.50;1.10;;;15.60;99.90;;;;;;4977756;28;20196;-15
2023/10/21 04:35:18;;;;;;;1.58;1.15;;;15.60;99.90;;;;;;4994528;28;20104;-16
2023/10/21 04:37:43;;;;;;;3.10;1.10;;;15.70;99.90;;;;;;4992399;28;20037;-15
2023/10/21 04:40:11;;;;;;;1.35;0.90;;;15.70;99.90;;;;;;4968078;28;20090;-15
2023/10/21 04:42:38;;;;;;;1.83;1.00;;;15.70;99.90;;;;;;4979754;28;20199;-15
2023/10/21 04:45:08;;;;;;;2.43;0.90;;;15.70;99.90;;;;;;4994949;28;20034;-16
2023/10/21 04:47:34;;;;;;;1.85;1.20;;;15.70;99.90;;;;;;4955108;28;20144;-15
2023/10/21 04:50:00;;;;;;;3.45;1.20;;;15.70;99.90;;;;;;4974277;28;20040;-15
2023/10/21 04:52:25;;;;;;;1.97;1.20;;;15.70;99.90;;;;;;4981582;28;20543;-16
2023/10/21 04:54:51;;;;;;;1.83;1.08;;;15.70;99.90;;;;;;4985496;28;20040;-15
2023/10/21 04:57:17;;;;;;;3.97;1.07;;;15.80;99.90;;;;;;4987362;28;20033;-16
2023/10/21 04:59:43;;;;;;;1.50;1.10;;;15.60;99.90;;;;;;4991263;28;20228;-15
2023/10/21 05:02:08;;;;;;;1.80;1.00;;;15.70;99.90;;;;;;4952621;28;20552;-16
2023/10/21 05:04:35;;;;;;;2.10;1.00;;;15.80;99.90;;;;;;4979476;28;20136;-15
2023/10/21 05:07:02;;;;;;;1.63;1.00;;;15.80;99.90;;;;;;4980555;28;20037;-16
2023/10/21 05:09:28;;;;;;;1.60;0.90;;;15.80;99.90;;;;;;4986491;28;20312;-15
2023/10/21 05:11:54;;;;;;;1.90;0.90;;;15.80;99.90;;;;;;4982923;28;20050;-16
2023/10/21 05:14:20;;;;;;;2.45;1.00;;;15.80;99.90;;;;;;4996479;28;20232;-15
2023/10/21 05:16:46;;;;;;;1.70;1.00;;;15.80;99.90;;;;;;4959230;28;20026;-15
2023/10/21 05:19:12;;;;;;;1.10;0.90;;;15.80;99.90;;;;;;4961426;28;23526;-16
2023/10/21 05:21:37;;;;;;;1.52;0.95;;;15.90;99.90;;;;;;4994726;28;20026;-15
2023/10/21 05:24:04;;;;;;;1.83;1.00;;;15.80;99.90;;;;;;4979677;28;20124;-16
2023/10/21 05:26:30;;;;;;;2.35;1.42;;;15.80;99.90;;;;;;4988145;28;20822;-15
2023/10/21 05:28:57;;;;;;;2.00;1.10;;;15.80;99.90;;;;;;4984063;28;20022;-16
2023/10/21 05:31:24;;;;;;;2.92;1.40;;;15.90;99.90;;;;;;5007884;28;20312;-15
2023/10/21 05:33:50;;;;;;;3.58;1.33;;;15.80;99.90;;;;;;4967964;28;20162;-15
2023/10/21 05:36:16;;;;;;;2.28;1.25;;;15.70;99.90;;;;;;4984292;28;20182;-17
2023/10/21 05:38:41;;;;;;;1.47;0.80;;;15.80;99.90;;;;;;4980248;28;20523;-18
2023/10/21 05:41:07;;;;;;;1.48;0.80;;;16.00;99.90;;;;;;4981175;28;20042;-17
2023/10/21 05:43:33;;;;;;;2.43;1.00;;;15.80;99.90;;;;;;4990147;28;20022;-18
2023/10/21 05:46:03;;;;;;;2.03;0.93;;;15.90;99.90;;;;;;4983130;28;20038;-18
2023/10/21 05:48:28;;;;;;;1.80;1.00;;;15.90;99.90;;;;;;4971124;28;26045;-17
2023/10/21 05:51:00;;;;;;;1.58;0.90;;;15.80;99.90;;;;;;4980609;28;20168;-18
2023/10/21 05:53:26;;;;;;;3.08;1.00;;;15.80;99.90;;;;;;4962222;28;20038;-17
2023/10/21 05:55:55;;;;;;;1.17;0.90;;;15.80;99.90;;;;;;4983509;28;20672;-18
2023/10/21 05:58:21;;;;;;;2.50;1.40;;;15.80;99.90;;;;;;4978202;28;20431;-18
2023/10/21 06:00:46;;;;;;;1.90;0.93;;;15.80;99.90;;;;;;4977804;28;20061;-18
2023/10/21 06:03:13;;;;;;;1.80;1.20;;;15.80;99.90;;;;;;4990829;28;20488;-17
2023/10/21 06:05:39;;;;;;;0.70;0.70;;;15.80;99.90;;;;;;4955511;28;20488;-17
2023/10/21 06:08:05;;;;;;;1.27;0.80;;;15.80;99.90;;;;;;4972137;28;20045;-18
2023/10/21 06:10:31;;;;;;;1.67;0.80;;;15.70;99.90;;;;;;4989514;28;20408;-18
2023/10/21 06:12:57;;;;;;;0.60;0.60;;;15.70;99.90;;;;;;4980194;28;20096;-18
2023/10/21 06:15:23;;;;;;;1.45;0.85;;;15.70;99.90;;;;;;4968570;28;20041;-18
2023/10/21 06:17:49;;;;;;;0.60;0.60;;;15.70;99.90;;;;;;4990196;28;20830;-18
2023/10/21 06:20:14;;;;;;;1.63;0.80;;;15.60;99.90;;;;;;4971361;28;20133;-18
2023/10/21 06:22:40;;;;;;;0.77;0.57;;;15.60;99.90;;;;;;4983863;28;20040;-18
2023/10/21 06:25:06;;;;;;;0.90;0.60;;;15.50;99.90;;;;;;4982972;28;20285;-18
2023/10/21 06:27:32;;;;;;;0.73;0.50;;;15.50;99.90;;;;;;4980699;28;20443;-18
2023/10/21 06:29:58;;;;;;;1.03;0.60;;;15.40;99.90;;;;;;4987637;28;20048;-18
2023/10/21 06:32:24;;;;;;;1.35;0.60;;;15.30;99.90;;;;;;4970561;28;20056;-18
2023/10/21 06:34:50;;;;;;;0.63;0.50;;;15.30;99.90;;;;;;4982722;28;20053;-18
2023/10/21 06:37:16;;;;;;;1.73;0.60;;;15.30;99.90;;;;;;4968048;28;20821;-18
2023/10/21 06:39:41;;;;;;;0.63;0.52;;;15.20;99.90;;;;;;4995984;28;20268;-18
2023/10/21 06:42:07;;;;;;;0.50;0.50;;;15.20;99.90;;;;;;4950492;28;20282;-18
2023/10/21 06:44:35;;;;;;;1.90;0.50;;;15.10;99.90;;;;;;4993600;28;20388;-18
2023/10/21 06:47:01;;;;;;;0.95;0.70;;;15.10;99.90;;;;;;4989285;28;20037;-18
2023/10/21 06:49:27;;;;;;;1.85;0.55;;;15.10;99.90;;;;;;4978162;28;20061;-18
2023/10/21 06:51:55;;;;;;;0.70;0.57;;;15.00;99.90;;;;;;4946663;28;20022;-18
2023/10/21 06:54:21;;;;;;;1.40;0.50;;;15.00;99.90;;;;;;4990210;28;20431;-18
2023/10/21 06:56:47;;;;;;;1.10;0.60;;;15.00;99.90;;;;;;4986961;28;20104;-18
2023/10/21 06:59:13;;;;;;;0.77;0.63;;;15.00;99.90;;;;;;4973930;28;20526;-17
2023/10/21 07:01:40;;;;;;;0.65;0.60;;;15.00;99.90;;;;;;4987687;28;20295;-18
2023/10/21 07:04:06;;;;;;;1.35;0.60;;;15.00;99.90;;;;;;4987436;28;20046;-18
2023/10/21 07:06:32;;;;;;;1.05;0.50;;;15.00;99.90;;;;;;4969059;28;20561;-18
2023/10/21 07:08:58;;;;;;;1.23;0.60;;;15.00;99.90;;;;;;4989401;28;20038;-18
2023/10/21 07:11:24;;;;;;;1.33;0.60;;;15.00;99.90;;;;;;4980414;28;20600;-18
2023/10/21 07:13:49;;;;;;;1.10;0.60;;;15.00;99.90;;;;;;4988410;28;20662;-18
2023/10/21 07:16:15;;;;;;;1.20;0.50;;;15.00;99.90;;;;;;4983599;28;20034;-18
2023/10/21 07:18:41;;;;;;;0.68;0.68;;;15.00;99.90;;;;;;4984059;28;20061;-18
2023/10/21 07:21:08;;;;;;;0.90;0.50;;;15.10;99.90;;;;;;4991622;28;20061;-17
2023/10/21 07:23:35;;;;;;;0.88;0.63;;;15.10;99.90;;;;;;4956470;28;20022;-18
2023/10/21 07:26:02;;;;;;;0.77;0.70;;;15.10;99.90;;;;;;4980771;28;20045;-18
2023/10/21 07:28:28;;;;;;;1.20;0.57;;;15.10;99.90;;;;;;4982685;28;20431;-18
2023/10/21 07:30:54;;;;;;;0.60;0.60;;;15.10;99.90;;;;;;4992972;28;20163;-17
2023/10/21 07:33:21;;;;;;;0.90;0.53;;;15.10;99.90;;;;;;4982553;28;20037;-18
2023/10/21 07:35:51;;;;;;;1.05;0.60;;;15.10;99.90;;;;;;4985495;28;20057;-18
2023/10/21 07:38:17;;;;;;;1.77;0.60;;;15.10;99.90;;;;;;4985304;28;20285;-18
2023/10/21 07:40:43;;;;;;;0.73;0.50;;;15.20;99.90;;;;;;4968345;28;20611;-18
2023/10/21 07:43:09;;;;;;;0.57;0.57;;;15.20;99.90;;;;;;4983710;28;20073;-18
2023/10/21 07:45:35;;;;;;;0.50;0.50;;;15.20;99.90;;;;;;4970793;28;20802;-18
2023/10/21 07:48:02;;;;;;;1.23;0.50;;;15.20;99.90;;;;;;4999377;28;20580;-17
2023/10/21 07:50:28;;;;;;;0.60;0.50;;;15.20;99.90;;;;;;4986171;28;20424;-18
2023/10/21 07:52:54;;;;;;;0.60;0.50;;;15.20;99.90;;;;;;4968234;28;20561;-18
2023/10/21 07:55:20;;;;;;;1.10;0.50;;;15.30;99.90;;;;;;4985704;28;20034;-18
2023/10/21 07:57:46;;;;;;;3.50;0.60;;;15.30;99.90;;;;;;4979774;28;20030;-15
2023/10/21 08:00:13;;;;;;;1.40;0.67;;;15.30;99.90;;;;;;4969053;28;20030;-15
2023/10/21 08:02:40;;;;;;;1.60;0.70;;;15.40;99.90;;;;;;4991792;28;20105;-16
2023/10/21 08:05:07;;;;;;;0.65;0.60;;;15.40;99.90;;;;;;4989076;28;20044;-15
2023/10/21 08:07:34;;;;;;;1.40;0.65;;;15.40;99.90;;;;;;4982235;28;20450;-15
2023/10/21 08:10:00;;;;;;;1.65;0.77;;;15.40;99.90;;;;;;4983384;28;20457;-15
2023/10/21 08:12:26;;;;;;;0.83;0.50;;;15.50;99.90;;;;;;4972652;28;20113;-16
2023/10/21 08:14:51;;;;;;;3.22;0.60;;;15.60;99.90;;;;;;4982295;28;20034;-15
2023/10/21 08:17:17;;;;;;;0.90;0.40;;;15.60;99.90;;;;;;4996897;28;20443;-15
2023/10/21 08:19:45;;;;;;;0.80;0.40;;;15.60;99.90;;;;;;4983883;28;20254;-15
2023/10/21 08:22:11;;;;;;;0.52;0.50;;;15.70;99.90;;;;;;4997615;28;20040;-15
2023/10/21 08:24:36;;;;;;;1.70;0.70;;;15.80;99.90;;;;;;4965608;28;20042;-16
2023/10/21 08:27:04;;;;;;;1.30;0.60;;;15.80;99.90;;;;;;4967051;28;20269;-15
2023/10/21 08:29:30;;;;;;;2.60;0.60;;;15.90;99.90;;;;;;4984785;28;20383;-16
2023/10/21 08:31:56;;;;;;;1.40;0.60;;;15.90;99.90;;;;;;4967386;28;20294;-15
2023/10/21 08:34:22;;;;;;;1.33;0.60;;;16.00;99.90;;;;;;4996695;28;20021;-15
2023/10/21 08:36:48;;;;;;;1.25;0.70;;;16.00;99.90;;;;;;4964012;28;20373;-15
2023/10/21 08:39:14;;;;;;;1.92;0.70;;;16.10;99.90;;;;;;4961714;28;20044;-15
2023/10/21 08:41:40;;;;;;;1.03;0.60;;;16.10;99.90;;;;;;4980958;28;20422;-16
2023/10/21 08:44:08;;;;;;;0.75;0.60;;;16.10;99.90;;;;;;4983641;28;20135;-15
2023/10/21 08:46:34;;;;;;;0.70;0.50;;;16.10;99.90;;;;;;4982752;28;20057;-16
2023/10/21 08:49:04;;;;;;;1.35;0.60;;;16.20;99.90;;;;;;4994310;28;20107;-15
2023/10/21 08:51:32;;;;;;;1.13;0.50;;;16.20;99.90;;;;;;4968393;28;20026;-16
2023/10/21 08:54:03;;;;;;;1.77;0.60;;;16.30;99.90;;;;;;4963726;28;20030;-15
2023/10/21 08:56:50;;;;;;;1.40;0.70;;;16.30;99.90;;;;;;4982368;28;20029;-17
2023/10/21 08:59:16;;;;;;;1.73;0.70;;;16.40;99.90;;;;;;4990142;28;20402;-18
2023/10/21 09:01:42;;;;;;;1.40;0.60;;;16.50;99.90;;;;;;4985993;28;20041;-18
2023/10/21 09:04:07;;;;;;;1.37;0.60;;;15.60;99.90;;;;;;4995364;28;20053;-18
2023/10/21 09:06:33;;;;;;;0.70;0.50;;;16.60;99.90;;;;;;4987495;28;20649;-18
2023/10/21 09:08:59;;;;;;;2.27;0.77;;;16.70;99.90;;;;;;4991001;28;20664;-18
2023/10/21 09:11:26;;;;;;;1.38;0.70;;;16.70;99.90;;;;;;4968189;28;20041;-18
2023/10/21 09:13:58;;;;;;;0.50;0.50;;;16.90;99.90;;;;;;4982991;28;20014;-18
2023/10/21 09:16:26;;;;;;;1.05;0.52;;;17.00;99.90;;;;;;4981616;28;20030;-18
2023/10/21 09:19:00;;;;;;;2.10;0.60;;;17.20;99.90;;;;;;4979803;28;20575;-18
2023/10/21 09:21:38;;;;;;;1.77;0.60;;;17.50;99.90;;;;;;4995482;28;20403;-18
2023/10/21 09:24:11;;;;;;;1.40;0.47;;;17.90;99.90;;;;;;4991856;28;20045;-18
2023/10/21 09:26:41;;;;;;;1.75;0.60;;;18.20;99.90;;;;;;4967382;28;20391;-18
2023/10/21 09:29:11;;;;;;;2.20;0.80;;;18.50;99.90;;;;;;4994452;28;20022;-18
2023/10/21 09:31:51;;;;;;;2.13;0.80;;;18.80;99.90;;;;;;4983316;28;20113;-18
2023/10/21 09:34:32;;;;;;;1.38;0.60;;;19.20;99.90;;;;;;4984755;28;20065;-19
2023/10/21 09:37:00;;;;;;;2.95;0.70;;;19.50;99.90;;;;;;4980500;28;20030;-19
2023/10/21 09:39:30;;;;;;;3.50;0.82;;;19.90;99.90;;;;;;4985398;28;20110;-19
2023/10/21 09:41:58;;;;;;;2.00;0.80;;;20.20;99.90;;;;;;4966504;28;20125;-19
2023/10/21 09:44:25;;;;;;;3.03;0.70;;;20.60;99.90;;;;;;4986928;28;20030;-20
2023/10/21 09:46:54;;;;;;;2.28;0.80;;;20.90;99.90;;;;;;4986863;28;20458;-20
2023/10/21 09:49:22;;;;;;;1.83;0.80;;;21.20;99.90;;;;;;4975165;28;20427;-20
2023/10/21 09:52:00;;;;;;;3.83;0.88;;;21.60;99.90;;;;;;4992332;28;20296;-20
2023/10/21 09:54:55;;;;;;;3.22;0.70;;;21.80;99.90;;;;;;4985060;28;20034;-21
2023/10/21 09:57:22;;;;;;;2.90;0.80;;;22.20;99.90;;;;;;4968811;28;20165;-21
2023/10/21 09:59:49;;;;;;;2.58;0.70;;;22.30;99.90;;;;;;4984597;28;20025;-21
2023/10/21 10:02:15;;;;;;;2.78;0.80;;;22.50;99.90;;;;;;4998985;28;20022;-21
2023/10/21 10:04:42;;;;;;;2.90;0.93;;;22.60;99.90;;;;;;4978654;28;20034;-21
2023/10/21 10:07:09;;;;;;;2.30;0.77;;;22.70;99.90;;;;;;4999157;28;20523;-20
2023/10/21 10:09:36;;;;;;;3.50;0.83;;;22.80;99.90;;;;;;4990428;28;20029;-20
2023/10/21 10:12:17;;;;;;;3.10;0.90;;;22.90;99.90;;;;;;4972860;28;20718;-20
2023/10/21 10:14:43;;;;;;;3.40;0.77;;;23.10;99.90;;;;;;4980526;28;20636;-21
2023/10/21 10:17:09;;;;;;;3.35;1.13;;;23.20;99.90;;;;;;5000703;28;20030;-21
2023/10/21 10:19:39;;;;;;;2.67;0.80;;;23.30;99.90;;;;;;4979797;28;20038;-21
2023/10/21 10:22:29;;;;;;;2.72;0.90;;;23.40;99.90;;;;;;5000586;28;20045;-21
2023/10/21 10:25:24;;;;;;;4.18;1.30;;;23.40;99.90;;;;;;4965468;28;20140;-21
2023/10/21 10:27:57;;;;;;;4.40;1.25;;;20.60;99.90;;;;;;4974123;28;20034;-21
2023/10/21 10:30:22;;;;;;;3.17;0.88;;;23.40;99.90;;;;;;4984399;28;20514;-21
2023/10/21 10:32:52;;;;;;;3.07;0.80;;;23.40;99.90;;;;;;4993409;28;20022;-21
2023/10/21 10:35:32;;;;;;;4.25;0.90;;;23.40;99.90;;;;;;4999669;28;20033;-21
2023/10/21 10:38:02;;;;;;;2.97;1.05;;;23.30;99.90;;;;;;4988563;28;20049;-21
2023/10/21 10:40:48;;;;;;;2.38;0.70;;;23.00;99.90;;;;;;4985008;28;20034;-21
2023/10/21 10:43:16;;;;;;;3.43;1.07;;;23.00;99.90;;;;;;4997187;28;20121;-21
2023/10/21 10:45:42;;;;;;;2.40;0.75;;;22.70;99.90;;;;;;4947757;28;20462;-21
2023/10/21 10:48:08;;;;;;;3.40;0.80;;;22.40;99.90;;;;;;4998289;28;20415;-20
2023/10/21 10:50:37;;;;;;;3.13;0.80;;;22.10;99.90;;;;;;4979751;28;20018;-21
2023/10/21 10:53:21;;;;;;;4.03;1.07;;;22.00;99.90;;;;;;4985644;28;20836;-21
2023/10/21 10:55:54;;;;;;;2.10;0.60;;;21.80;99.90;;;;;;4988175;28;20042;-21
2023/10/21 10:58:29;;;;;;;3.35;0.80;;;21.80;99.90;;;;;;4975348;28;20527;-21
2023/10/21 11:00:56;;;;;;;4.72;1.10;;;22.00;99.90;;;;;;4966163;28;20038;-21
2023/10/21 11:03:31;;;;;;;4.28;1.05;;;22.20;99.90;;;;;;4986138;28;20049;-21
2023/10/21 11:05:58;;;;;;;2.43;0.80;;;22.40;99.90;;;;;;5010868;28;20568;-21
2023/10/21 11:08:25;;;;;;;4.45;1.10;;;22.70;99.90;;;;;;4971783;28;20084;-21
2023/10/21 11:10:53;;;;;;;3.53;0.80;;;22.90;99.90;;;;;;4985394;28;20502;-21
2023/10/21 11:13:22;;;;;;;4.63;0.90;;;23.10;99.90;;;;;;4994442;28;20142;-21
2023/10/21 11:15:54;;;;;;;3.38;0.85;;;23.20;99.90;;;;;;4919911;28;20258;-21
2023/10/21 11:18:21;;;;;;;4.33;0.87;;;23.30;99.90;;;;;;4987128;28;20121;-22
2023/10/21 11:20:48;;;;;;;4.63;0.85;;;23.50;99.90;;;;;;4993902;28;20672;-22
2023/10/21 11:23:18;;;;;;;3.10;0.90;;;23.60;99.90;;;;;;4975866;28;20025;-22
2023/10/21 11:25:47;;;;;;;2.88;1.02;;;23.70;99.90;;;;;;4992026;28;20033;-22
2023/10/21 11:28:14;;;;;;;4.38;0.95;;;23.60;99.90;;;;;;4971728;28;20022;-21
2023/10/21 11:30:44;;;;;;;5.77;0.90;;;23.40;99.90;;;;;;4973095;28;20026;-21
2023/10/21 11:33:10;;;;;;;2.55;0.85;;;23.20;99.90;;;;;;4961618;28;20492;-21
2023/10/21 11:35:40;;;;;;;3.80;0.88;;;23.10;99.90;;;;;;4980123;28;20041;-20
2023/10/21 11:38:07;;;;;;;6.03;1.30;;;23.00;99.90;;;;;;4969855;28;20266;-21
2023/10/21 11:40:34;;;;;;;4.85;1.10;;;23.00;99.90;;;;;;4996743;28;21337;-20
2023/10/21 11:43:01;;;;;;;5.83;1.23;;;23.00;99.90;;;;;;4989608;28;20061;-21
2023/10/21 11:45:30;;;;;;;5.20;1.30;;;22.80;99.90;;;;;;4998663;28;22211;-21
2023/10/21 11:48:00;;;;;;;5.13;1.10;;;22.70;99.90;;;;;;4966152;28;20030;-21
2023/10/21 11:50:33;;;;;;;3.45;1.10;;;22.60;99.90;;;;;;4996947;28;20040;-21
2023/10/21 11:53:06;;;;;;;6.15;1.30;;;22.60;99.90;;;;;;4980820;28;20135;-21
2023/10/21 12:11:51;;;;;;;3.95;0.88;;;21.70;99.90;;;;;;4978698;28;20022;-20
2023/10/21 12:33:08;;;;;;;3.75;0.95;;;20.90;99.90;;;;;;4985732;28;20144;-22
2023/10/21 12:40:39;;;;;;;5.32;1.02;;;20.90;99.90;;;;;;4972420;28;20025;-21
2023/10/21 12:45:46;;;;;;;3.05;0.80;;;20.80;99.90;;;;;;4983622;28;20049;-21
2023/10/21 12:48:19;;;;;;;5.30;1.25;;;20.70;99.90;;;;;;4995455;28;20038;-22
2023/10/21 12:50:52;;;;;;;7.27;1.17;;;20.70;99.90;;;;;;4968794;28;20022;-22
2023/10/21 12:53:18;;;;;;;4.22;1.10;;;20.60;99.90;;;;;;4982496;28;20113;-22
2023/10/21 12:55:45;;;;;;;4.28;0.90;;;18.90;99.90;;;;;;4980186;28;20152;-22
2023/10/21 12:58:10;;;;;;;3.25;0.90;;;20.50;99.90;;;;;;4991027;23;20520;-22
2023/10/21 13:00:37;;;;;;;4.40;1.10;;;20.50;99.90;;;;;;4982951;28;20138;-22
2023/10/21 13:03:10;;;;;;;2.17;0.70;;;20.40;99.90;;;;;;4970301;28;20025;-22
2023/10/21 13:05:37;;;;;;;4.10;0.90;;;20.40;99.90;;;;;;4960623;28;20042;-22
2023/10/21 13:08:07;;;;;;;4.50;0.93;;;20.30;99.90;;;;;;4971028;28;20114;-22
2023/10/21 13:10:33;;;;;;;4.33;0.80;;;20.30;99.90;;;;;;4978681;28;20128;-22
2023/10/21 13:13:01;;;;;;;4.38;1.02;;;20.20;99.90;;;;;;4936586;28;20080;-22
2023/10/21 13:15:27;;;;;;;4.43;0.73;;;20.20;99.90;;;;;;4967984;28;20120;-22
2023/10/21 13:17:52;;;;;;;2.42;1.00;;;20.10;99.90;;;;;;4971130;28;20767;-22
2023/10/21 13:20:18;;;;;;;3.07;1.00;;;20.00;99.90;;;;;;4904495;28;20102;-22
2023/10/21 13:22:45;;;;;;;2.40;0.70;;;19.90;99.90;;;;;;4959819;28;21461;-22
2023/10/21 13:25:13;;;;;;;2.35;0.80;;;19.80;99.90;;;;;;4975826;28;20949;-22
2023/10/21 13:27:40;;;;;;;3.37;1.00;;;19.70;99.90;;;;;;4939927;28;21091;-22
2023/10/21 13:30:10;;;;;;;4.18;1.00;;;20.30;99.90;;;;;;4975433;28;20049;-22
2023/10/21 13:32:47;;;;;;;4.22;1.00;;;19.40;99.90;;;;;;4950686;28;20042;-22